sensor_id;sensor_type;location;lat;lon;timestamp;temperature;humidity
33645;DHT22;19986;48.190;16.366;2022-12-18T05:05:08;1.50;99.90
33645;DHT22;19986;48.190;16.366;2022-12-18T05:07:35;1.60;99.90
33645;DHT22;19986;48.190;16.366;2022-12-18T05:10:02;1.70;99.90
33645;DHT22;19986;48.190;16.366;2022-12-18T05:12:28;1.60;99.90
33645;DHT22;19986;48.190;16.366;2022-12-18T05:14:54;1.60;99.90
33645;DHT22;19986;48.190;16.366;2022-12-18T05:17:20;1.60;99.90
33645;DHT22;19986;48.190;16.366;2022-12-18T05:19:46;1.60;99.90
33645;DHT22;19986;48.190;16.366;2022-12-18T05:22:12;1.50;99.90
33645;DHT22;19986;48.190;16.366;2022-12-18T05:24:38;1.50;99.90
33645;DHT22;19986;48.190;16.366;2022-12-18T05:27:04;1.40;99.90
33645;DHT22;19986;48.190;16.366;2022-12-18T05:29:30;1.40;99.90
33645;DHT22;19986;48.190;16.366;2022-12-18T05:31:56;1.30;99.90
33645;DHT22;19986;48.190;16.366;2022-12-18T05:34:22;1.30;99.90
33645;DHT22;19986;48.190;16.366;2022-12-18T05:36:48;1.30;99.90
33645;DHT22;19986;48.190;16.366;2022-12-18T05:39:13;1.30;99.90
33645;DHT22;19986;48.190;16.366;2022-12-18T05:41:39;1.30;99.90
33645;DHT22;19986;48.190;16.366;2022-12-18T05:44:05;1.20;99.90
33645;DHT22;19986;48.190;16.366;2022-12-18T05:46:32;1.20;99.90
33645;DHT22;19986;48.190;16.366;2022-12-18T05:49:01;1.20;99.90
33645;DHT22;19986;48.190;16.366;2022-12-18T05:51:27;1.20;99.90
33645;DHT22;19986;48.190;16.366;2022-12-18T05:53:53;1.20;99.90
33645;DHT22;19986;48.190;16.366;2022-12-18T05:56:21;1.20;99.90
33645;DHT22;19986;48.190;16.366;2022-12-18T05:58:51;1.20;99.90
33645;DHT22;19986;48.190;16.366;2022-12-18T06:01:20;1.20;99.90
33645;DHT22;19986;48.190;16.366;2022-12-18T06:03:47;1.20;99.90
33645;DHT22;19986;48.190;16.366;2022-12-18T06:06:21;1.20;99.90
33645;DHT22;19986;48.190;16.366;2022-12-18T06:08:48;1.20;99.90
33645;DHT22;19986;48.190;16.366;2022-12-18T06:11:17;1.20;99.90
33645;DHT22;19986;48.190;16.366;2022-12-18T06:13:44;1.20;99.90
33645;DHT22;19986;48.190;16.366;2022-12-18T06:16:10;1.10;99.90
33645;DHT22;19986;48.190;16.366;2022-12-18T06:18:36;1.20;99.90
33645;DHT22;19986;48.190;16.366;2022-12-18T06:21:02;1.20;99.90
33645;DHT22;19986;48.190;16.366;2022-12-18T06:23:30;1.10;99.90
33645;DHT22;19986;48.190;16.366;2022-12-18T06:25:56;1.10;99.90
33645;DHT22;19986;48.190;16.366;2022-12-18T06:28:22;1.10;99.90
33645;DHT22;19986;48.190;16.366;2022-12-18T06:30:48;1.10;99.90
33645;DHT22;19986;48.190;16.366;2022-12-18T06:33:15;1.10;99.90
33645;DHT22;19986;48.190;16.366;2022-12-18T06:35:41;1.10;99.90
33645;DHT22;19986;48.190;16.366;2022-12-18T06:38:09;1.10;99.90
33645;DHT22;19986;48.190;16.366;2022-12-18T06:40:37;1.10;99.90
33645;DHT22;19986;48.190;16.366;2022-12-18T06:43:04;1.10;99.90
33645;DHT22;19986;48.190;16.366;2022-12-18T06:45:31;1.10;99.90
33645;DHT22;19986;48.190;16.366;2022-12-18T06:47:57;1.10;99.90
33645;DHT22;19986;48.190;16.366;2022-12-18T06:50:23;1.10;99.90
33645;DHT22;19986;48.190;16.366;2022-12-18T06:52:49;1.10;99.90
33645;DHT22;19986;48.190;16.366;2022-12-18T06:55:16;1.20;99.90
33645;DHT22;19986;48.190;16.366;2022-12-18T06:57:42;1.10;99.90
33645;DHT22;19986;48.190;16.366;2022-12-18T07:00:09;1.20;99.90
33645;DHT22;19986;48.190;16.366;2022-12-18T07:02:50;1.20;99.90
33645;DHT22;19986;48.190;16.366;2022-12-18T07:05:16;1.20;99.90
33645;DHT22;19986;48.190;16.366;2022-12-18T07:07:42;1.20;99.90
33645;DHT22;19986;48.190;16.366;2022-12-18T07:10:09;1.20;99.90
33645;DHT22;19986;48.190;16.366;2022-12-18T07:12:35;1.20;99.90
33645;DHT22;19986;48.190;16.366;2022-12-18T07:15:03;1.20;99.90
33645;DHT22;19986;48.190;16.366;2022-12-18T07:17:32;1.20;99.90
33645;DHT22;19986;48.190;16.366;2022-12-18T07:20:01;1.20;99.90
33645;DHT22;19986;48.190;16.366;2022-12-18T07:22:27;1.30;99.90
33645;DHT22;19986;48.190;16.366;2022-12-18T07:24:53;1.30;99.90
33645;DHT22;19986;48.190;16.366;2022-12-18T07:27:19;1.30;99.90
33645;DHT22;19986;48.190;16.366;2022-12-18T07:29:45;1.40;99.90
33645;DHT22;19986;48.190;16.366;2022-12-18T07:32:11;1.40;99.90
33645;DHT22;19986;48.190;16.366;2022-12-18T07:34:38;1.50;99.90
33645;DHT22;19986;48.190;16.366;2022-12-18T07:37:19;1.50;99.90
33645;DHT22;19986;48.190;16.366;2022-12-18T07:39:46;1.50;99.90
33645;DHT22;19986;48.190;16.366;2022-12-18T07:42:12;1.50;99.90
33645;DHT22;19986;48.190;16.366;2022-12-18T07:45:10;1.40;99.90
33645;DHT22;19986;48.190;16.366;2022-12-18T07:47:36;1.50;99.90
33645;DHT22;19986;48.190;16.366;2022-12-18T07:50:03;1.50;99.90
33645;DHT22;19986;48.190;16.366;2022-12-18T07:52:30;1.50;99.90
33645;DHT22;19986;48.190;16.366;2022-12-18T07:54:57;1.50;99.90
33645;DHT22;19986;48.190;16.366;2022-12-18T07:57:23;1.50;99.90
33645;DHT22;19986;48.190;16.366;2022-12-18T07:59:49;1.50;99.90
33645;DHT22;19986;48.190;16.366;2022-12-18T08:02:15;1.50;99.90
33645;DHT22;19986;48.190;16.366;2022-12-18T08:04:41;1.50;99.90
33645;DHT22;19986;48.190;16.366;2022-12-18T08:07:07;1.50;99.90
33645;DHT22;19986;48.190;16.366;2022-12-18T08:09:33;1.50;99.90
33645;DHT22;19986;48.190;16.366;2022-12-18T08:11:58;1.50;99.90
33645;DHT22;19986;48.190;16.366;2022-12-18T08:14:24;1.50;99.90
33645;DHT22;19986;48.190;16.366;2022-12-18T08:16:50;1.60;99.90
33645;DHT22;19986;48.190;16.366;2022-12-18T08:19:17;1.60;99.90
33645;DHT22;19986;48.190;16.366;2022-12-18T08:21:43;1.60;99.90
33645;DHT22;19986;48.190;16.366;2022-12-18T08:24:09;1.60;99.90
33645;DHT22;19986;48.190;16.366;2022-12-18T08:26:36;1.60;99.90
33645;DHT22;19986;48.190;16.366;2022-12-18T08:29:02;1.60;99.90
33645;DHT22;19986;48.190;16.366;2022-12-18T08:31:29;1.60;99.90
33645;DHT22;19986;48.190;16.366;2022-12-18T08:33:56;1.60;99.90
33645;DHT22;19986;48.190;16.366;2022-12-18T08:36:23;1.60;99.90
33645;DHT22;19986;48.190;16.366;2022-12-18T08:38:50;1.50;99.90
33645;DHT22;19986;48.190;16.366;2022-12-18T08:41:17;1.50;99.90
33645;DHT22;19986;48.190;16.366;2022-12-18T08:43:43;1.50;99.90
33645;DHT22;19986;48.190;16.366;2022-12-18T08:46:35;1.60;99.90
33645;DHT22;19986;48.190;16.366;2022-12-18T08:49:03;1.80;99.90
33645;DHT22;19986;48.190;16.366;2022-12-18T08:51:29;1.90;99.90
33645;DHT22;19986;48.190;16.366;2022-12-18T08:53:55;2.00;99.90
33645;DHT22;19986;48.190;16.366;2022-12-18T08:56:21;2.00;99.90
33645;DHT22;19986;48.190;16.366;2022-12-18T08:58:47;2.00;99.90
33645;DHT22;19986;48.190;16.366;2022-12-18T09:01:13;2.00;99.90
33645;DHT22;19986;48.190;16.366;2022-12-18T09:03:40;2.10;99.90
33645;DHT22;19986;48.190;16.366;2022-12-18T09:06:06;2.20;99.90
33645;DHT22;19986;48.190;16.366;2022-12-18T09:08:33;2.30;99.90
33645;DHT22;19986;48.190;16.366;2022-12-18T09:11:00;2.50;99.90
33645;DHT22;19986;48.190;16.366;2022-12-18T09:13:26;2.50;99.90
33645;DHT22;19986;48.190;16.366;2022-12-18T09:15:54;2.30;99.90
33645;DHT22;19986;48.190;16.366;2022-12-18T09:18:22;2.30;99.90
33645;DHT22;19986;48.190;16.366;2022-12-18T09:20:49;2.30;99.90
33645;DHT22;19986;48.190;16.366;2022-12-18T09:23:18;2.30;99.90
33645;DHT22;19986;48.190;16.366;2022-12-18T09:25:45;2.30;99.90
33645;DHT22;19986;48.190;16.366;2022-12-18T09:28:17;2.40;99.90
33645;DHT22;19986;48.190;16.366;2022-12-18T09:30:50;2.40;99.90
33645;DHT22;19986;48.190;16.366;2022-12-18T09:33:17;2.50;99.90
33645;DHT22;19986;48.190;16.366;2022-12-18T09:35:45;2.60;99.90
33645;DHT22;19986;48.190;16.366;2022-12-18T09:38:13;2.80;99.90
33645;DHT22;19986;48.190;16.366;2022-12-18T09:40:49;2.70;99.90
33645;DHT22;19986;48.190;16.366;2022-12-18T09:43:51;2.60;99.90
33645;DHT22;19986;48.190;16.366;2022-12-18T09:46:23;2.60;99.90
33645;DHT22;19986;48.190;16.366;2022-12-18T09:48:53;2.70;99.90
33645;DHT22;19986;48.190;16.366;2022-12-18T09:51:52;2.70;99.90
33645;DHT22;19986;48.190;16.366;2022-12-18T09:54:26;2.70;99.90
33645;DHT22;19986;48.190;16.366;2022-12-18T09:56:57;2.80;99.90
33645;DHT22;19986;48.190;16.366;2022-12-18T09:59:26;2.80;99.90
33645;DHT22;19986;48.190;16.366;2022-12-18T10:01:56;2.80;99.90
33645;DHT22;19986;48.190;16.366;2022-12-18T10:04:24;2.80;99.90
33645;DHT22;19986;48.190;16.366;2022-12-18T10:07:00;2.80;99.90
33645;DHT22;19986;48.190;16.366;2022-12-18T10:09:41;2.50;99.90
33645;DHT22;19986;48.190;16.366;2022-12-18T10:14:52;2.40;99.90
33645;DHT22;19986;48.190;16.366;2022-12-18T10:20:18;2.40;99.90
33645;DHT22;19986;48.190;16.366;2022-12-18T10:22:57;2.50;99.90
33645;DHT22;19986;48.190;16.366;2022-12-18T10:25:38;2.60;99.90
33645;DHT22;19986;48.190;16.366;2022-12-18T10:28:14;2.60;99.90
33645;DHT22;19986;48.190;16.366;2022-12-18T10:30:41;2.60;99.90
33645;DHT22;19986;48.190;16.366;2022-12-18T10:33:16;2.50;99.90
33645;DHT22;19986;48.190;16.366;2022-12-18T10:35:43;2.60;99.90
33645;DHT22;19986;48.190;16.366;2022-12-18T10:43:36;2.60;99.90
33645;DHT22;19986;48.190;16.366;2022-12-18T10:48:56;2.80;99.90
33645;DHT22;19986;48.190;16.366;2022-12-18T10:54:00;2.60;99.90
33645;DHT22;19986;48.190;16.366;2022-12-18T10:56:28;2.60;99.90
33645;DHT22;19986;48.190;16.366;2022-12-18T11:01:53;2.70;99.90
33645;DHT22;19986;48.190;16.366;2022-12-18T11:04:28;2.70;99.90
33645;DHT22;19986;48.190;16.366;2022-12-18T11:07:00;2.80;99.90
33645;DHT22;19986;48.190;16.366;2022-12-18T11:09:32;2.80;99.90
33645;DHT22;19986;48.190;16.366;2022-12-18T11:12:02;2.70;99.90
33645;DHT22;19986;48.190;16.366;2022-12-18T11:14:32;2.80;99.90
33645;DHT22;19986;48.190;16.366;2022-12-18T11:17:00;2.80;99.90
33645;DHT22;19986;48.190;16.366;2022-12-18T11:21:58;2.90;99.90
33645;DHT22;19986;48.190;16.366;2022-12-18T11:24:30;2.80;99.90
33645;DHT22;19986;48.190;16.366;2022-12-18T11:26:59;2.70;99.90
33645;DHT22;19986;48.190;16.366;2022-12-18T11:29:37;2.70;99.90
33645;DHT22;19986;48.190;16.366;2022-12-18T11:37:42;2.50;99.90
33645;DHT22;19986;48.190;16.366;2022-12-18T11:40:28;2.50;99.90
33645;DHT22;19986;48.190;16.366;2022-12-18T11:43:02;2.70;99.90
33645;DHT22;19986;48.190;16.366;2022-12-18T11:45:36;2.70;99.90
33645;DHT22;19986;48.190;16.366;2022-12-18T11:48:16;2.70;99.90
33645;DHT22;19986;48.190;16.366;2022-12-18T11:50:52;2.70;99.90
33645;DHT22;19986;48.190;16.366;2022-12-18T11:53:22;2.70;99.90
33645;DHT22;19986;48.190;16.366;2022-12-18T11:58:35;2.80;99.90
33645;DHT22;19986;48.190;16.366;2022-12-18T12:06:56;2.90;99.90
33645;DHT22;19986;48.190;16.366;2022-12-18T12:09:50;2.90;99.90
33645;DHT22;19986;48.190;16.366;2022-12-18T12:12:52;2.90;99.90
33645;DHT22;19986;48.190;16.366;2022-12-18T12:21:12;3.00;99.90
33645;DHT22;19986;48.190;16.366;2022-12-18T12:29:40;3.00;99.90
33645;DHT22;19986;48.190;16.366;2022-12-18T12:32:37;2.80;99.90
33645;DHT22;19986;48.190;16.366;2022-12-18T12:40:28;3.10;99.90
33645;DHT22;19986;48.190;16.366;2022-12-18T12:42:59;3.10;99.90
33645;DHT22;19986;48.190;16.366;2022-12-18T12:45:57;3.10;99.90
33645;DHT22;19986;48.190;16.366;2022-12-18T12:48:47;3.10;99.90
33645;DHT22;19986;48.190;16.366;2022-12-18T12:51:23;3.10;99.90
33645;DHT22;19986;48.190;16.366;2022-12-18T12:53:51;3.00;99.90
33645;DHT22;19986;48.190;16.366;2022-12-18T12:56:19;3.00;99.90
33645;DHT22;19986;48.190;16.366;2022-12-18T12:58:54;2.90;99.90
33645;DHT22;19986;48.190;16.366;2022-12-18T13:01:50;2.80;99.90
33645;DHT22;19986;48.190;16.366;2022-12-18T13:04:33;2.80;99.90
33645;DHT22;19986;48.190;16.366;2022-12-18T13:07:19;2.70;99.90
33645;DHT22;19986;48.190;16.366;2022-12-18T13:13:00;2.50;99.90
33645;DHT22;19986;48.190;16.366;2022-12-18T13:15:33;2.50;99.90
33645;DHT22;19986;48.190;16.366;2022-12-18T13:20:37;2.70;99.90
33645;DHT22;19986;48.190;16.366;2022-12-18T13:31:02;2.60;99.90
33645;DHT22;19986;48.190;16.366;2022-12-18T13:38:43;2.60;99.90
33645;DHT22;19986;48.190;16.366;2022-12-18T13:43:49;2.60;99.90
33645;DHT22;19986;48.190;16.366;2022-12-18T13:46:44;2.70;99.90
33645;DHT22;19986;48.190;16.366;2022-12-18T13:51:55;2.70;99.90
33645;DHT22;19986;48.190;16.366;2022-12-18T13:54:40;2.70;99.90
33645;DHT22;19986;48.190;16.366;2022-12-18T13:59:52;2.60;99.90
33645;DHT22;19986;48.190;16.366;2022-12-18T14:02:22;2.60;99.90
33645;DHT22;19986;48.190;16.366;2022-12-18T14:04:49;2.50;99.90
33645;DHT22;19986;48.190;16.366;2022-12-18T14:07:25;2.40;99.90
33645;DHT22;19986;48.190;16.366;2022-12-18T14:09:59;2.30;99.90
33645;DHT22;19986;48.190;16.366;2022-12-18T14:12:33;2.20;99.90
33645;DHT22;19986;48.190;16.366;2022-12-18T14:17:49;2.10;99.90
33645;DHT22;19986;48.190;16.366;2022-12-18T14:20:15;2.00;99.90
33645;DHT22;19986;48.190;16.366;2022-12-18T14:22:47;2.00;99.90
33645;DHT22;19986;48.190;16.366;2022-12-18T14:25:17;2.10;99.90
33645;DHT22;19986;48.190;16.366;2022-12-18T14:27:51;2.20;99.90
33645;DHT22;19986;48.190;16.366;2022-12-18T14:30:29;2.20;99.90
33645;DHT22;19986;48.190;16.366;2022-12-18T14:35:40;2.10;99.90
33645;DHT22;19986;48.190;16.366;2022-12-18T14:38:24;2.20;99.90
33645;DHT22;19986;48.190;16.366;2022-12-18T14:41:14;2.20;99.90
33645;DHT22;19986;48.190;16.366;2022-12-18T14:43:43;2.10;99.90
33645;DHT22;19986;48.190;16.366;2022-12-18T14:46:35;2.10;99.90
33645;DHT22;19986;48.190;16.366;2022-12-18T14:49:29;2.10;99.90
33645;DHT22;19986;48.190;16.366;2022-12-18T14:51:58;2.10;99.90
33645;DHT22;19986;48.190;16.366;2022-12-18T14:54:25;2.10;99.90
33645;DHT22;19986;48.190;16.366;2022-12-18T14:57:24;2.00;99.90
33645;DHT22;19986;48.190;16.366;2022-12-18T14:59:52;2.10;99.90
33645;DHT22;19986;48.190;16.366;2022-12-18T15:02:28;2.10;99.90
33645;DHT22;19986;48.190;16.366;2022-12-18T15:05:15;2.10;99.90
33645;DHT22;19986;48.190;16.366;2022-12-18T15:07:53;2.10;99.90
33645;DHT22;19986;48.190;16.366;2022-12-18T15:10:31;2.10;99.90
33645;DHT22;19986;48.190;16.366;2022-12-18T15:26:14;2.10;99.90
33645;DHT22;19986;48.190;16.366;2022-12-18T15:28:50;2.10;99.90
33645;DHT22;19986;48.190;16.366;2022-12-18T15:33:45;2.10;99.90
33645;DHT22;19986;48.190;16.366;2022-12-18T15:36:25;2.10;99.90
33645;DHT22;19986;48.190;16.366;2022-12-18T15:38:53;2.10;99.90
33645;DHT22;19986;48.190;16.366;2022-12-18T15:41:21;2.10;99.90
33645;DHT22;19986;48.190;16.366;2022-12-18T15:43:49;2.20;99.90
33645;DHT22;19986;48.190;16.366;2022-12-18T15:46:23;2.20;99.90
33645;DHT22;19986;48.190;16.366;2022-12-18T15:48:54;2.20;99.90
33645;DHT22;19986;48.190;16.366;2022-12-18T15:51:31;2.20;99.90
33645;DHT22;19986;48.190;16.366;2022-12-18T15:54:00;2.30;99.90
33645;DHT22;19986;48.190;16.366;2022-12-18T15:56:27;2.30;99.90
33645;DHT22;19986;48.190;16.366;2022-12-18T15:59:14;2.30;99.90
33645;DHT22;19986;48.190;16.366;2022-12-18T16:01:41;2.40;99.90
33645;DHT22;19986;48.190;16.366;2022-12-18T16:04:14;2.40;99.90
33645;DHT22;19986;48.190;16.366;2022-12-18T16:06:43;2.40;99.90
33645;DHT22;19986;48.190;16.366;2022-12-18T16:09:09;2.40;99.90
33645;DHT22;19986;48.190;16.366;2022-12-18T16:11:37;2.40;99.90
33645;DHT22;19986;48.190;16.366;2022-12-18T16:14:22;2.50;99.90
33645;DHT22;19986;48.190;16.366;2022-12-18T16:16:51;2.50;99.90
33645;DHT22;19986;48.190;16.366;2022-12-18T16:19:18;2.50;99.90
33645;DHT22;19986;48.190;16.366;2022-12-18T16:21:46;2.50;99.90
33645;DHT22;19986;48.190;16.366;2022-12-18T16:24:17;2.50;99.90
33645;DHT22;19986;48.190;16.366;2022-12-18T16:26:44;2.50;99.90
33645;DHT22;19986;48.190;16.366;2022-12-18T16:29:11;2.50;99.90
33645;DHT22;19986;48.190;16.366;2022-12-18T16:31:55;2.50;99.90
33645;DHT22;19986;48.190;16.366;2022-12-18T16:34:27;2.60;99.90
33645;DHT22;19986;48.190;16.366;2022-12-18T16:37:00;2.50;99.90
33645;DHT22;19986;48.190;16.366;2022-12-18T16:39:27;2.60;99.90
33645;DHT22;19986;48.190;16.366;2022-12-18T16:41:53;2.60;99.90
33645;DHT22;19986;48.190;16.366;2022-12-18T16:44:20;2.60;99.90
33645;DHT22;19986;48.190;16.366;2022-12-18T16:46:49;2.60;99.90
33645;DHT22;19986;48.190;16.366;2022-12-18T16:49:16;2.60;99.90
33645;DHT22;19986;48.190;16.366;2022-12-18T16:51:45;2.70;99.90
33645;DHT22;19986;48.190;16.366;2022-12-18T16:54:12;2.70;99.90
33645;DHT22;19986;48.190;16.366;2022-12-18T16:56:38;2.70;99.90
33645;DHT22;19986;48.190;16.366;2022-12-18T16:59:05;2.70;99.90
33645;DHT22;19986;48.190;16.366;2022-12-18T17:01:31;2.70;99.90
33645;DHT22;19986;48.190;16.366;2022-12-18T17:04:05;2.80;99.90
33645;DHT22;19986;48.190;16.366;2022-12-18T17:06:42;2.80;99.90
33645;DHT22;19986;48.190;16.366;2022-12-18T17:09:13;2.80;99.90
33645;DHT22;19986;48.190;16.366;2022-12-18T17:11:43;2.80;99.90
33645;DHT22;19986;48.190;16.366;2022-12-18T17:14:13;2.80;99.90
33645;DHT22;19986;48.190;16.366;2022-12-18T17:16:40;2.80;99.90
33645;DHT22;19986;48.190;16.366;2022-12-18T17:19:08;2.80;99.90
33645;DHT22;19986;48.190;16.366;2022-12-18T17:21:34;2.80;99.90
33645;DHT22;19986;48.190;16.366;2022-12-18T17:24:02;2.80;99.90
33645;DHT22;19986;48.190;16.366;2022-12-18T17:26:28;2.80;99.90
33645;DHT22;19986;48.190;16.366;2022-12-18T17:28:56;2.80;99.90
33645;DHT22;19986;48.190;16.366;2022-12-18T17:31:25;2.90;99.90
33645;DHT22;19986;48.190;16.366;2022-12-18T17:33:52;2.90;99.90
33645;DHT22;19986;48.190;16.366;2022-12-18T17:36:20;2.90;99.90
33645;DHT22;19986;48.190;16.366;2022-12-18T17:38:55;2.90;99.90
33645;DHT22;19986;48.190;16.366;2022-12-18T17:41:22;3.00;99.90
33645;DHT22;19986;48.190;16.366;2022-12-18T17:46:18;2.90;99.90
33645;DHT22;19986;48.190;16.366;2022-12-18T17:48:45;3.00;99.90
33645;DHT22;19986;48.190;16.366;2022-12-18T17:51:11;3.10;99.90
33645;DHT22;19986;48.190;16.366;2022-12-18T17:53:38;3.10;99.90
33645;DHT22;19986;48.190;16.366;2022-12-18T17:56:06;3.20;99.90
33645;DHT22;19986;48.190;16.366;2022-12-18T17:58:35;3.20;99.90
33645;DHT22;19986;48.190;16.366;2022-12-18T18:01:03;3.20;99.90
33645;DHT22;19986;48.190;16.366;2022-12-18T18:03:30;3.10;99.90
33645;DHT22;19986;48.190;16.366;2022-12-18T18:05:59;3.10;99.90
33645;DHT22;19986;48.190;16.366;2022-12-18T18:08:26;3.10;99.90
33645;DHT22;19986;48.190;16.366;2022-12-18T18:10:54;3.10;99.90
33645;DHT22;19986;48.190;16.366;2022-12-18T18:13:23;3.20;99.90
33645;DHT22;19986;48.190;16.366;2022-12-18T18:16:09;3.10;99.90
33645;DHT22;19986;48.190;16.366;2022-12-18T18:18:37;3.10;99.90
33645;DHT22;19986;48.190;16.366;2022-12-18T18:21:08;3.10;99.90
33645;DHT22;19986;48.190;16.366;2022-12-18T18:23:34;3.20;99.90
33645;DHT22;19986;48.190;16.366;2022-12-18T18:26:05;3.10;99.90
33645;DHT22;19986;48.190;16.366;2022-12-18T18:28:34;3.10;99.90
33645;DHT22;19986;48.190;16.366;2022-12-18T18:31:10;3.20;99.90
33645;DHT22;19986;48.190;16.366;2022-12-18T18:33:37;3.20;99.90
33645;DHT22;19986;48.190;16.366;2022-12-18T18:36:03;3.10;99.90
33645;DHT22;19986;48.190;16.366;2022-12-18T18:38:31;3.00;99.90
33645;DHT22;19986;48.190;16.366;2022-12-18T18:41:03;3.00;99.90
33645;DHT22;19986;48.190;16.366;2022-12-18T18:43:30;3.00;99.90
33645;DHT22;19986;48.190;16.366;2022-12-18T18:45:58;3.00;99.90
33645;DHT22;19986;48.190;16.366;2022-12-18T18:48:26;2.90;99.90
33645;DHT22;19986;48.190;16.366;2022-12-18T18:51:07;2.90;99.90
33645;DHT22;19986;48.190;16.366;2022-12-18T18:53:45;2.80;99.90
33645;DHT22;19986;48.190;16.366;2022-12-18T18:56:14;2.80;99.90
33645;DHT22;19986;48.190;16.366;2022-12-18T18:58:42;2.80;99.90
33645;DHT22;19986;48.190;16.366;2022-12-18T19:01:19;2.70;99.90
33645;DHT22;19986;48.190;16.366;2022-12-18T19:03:48;2.70;99.90
33645;DHT22;19986;48.190;16.366;2022-12-18T19:06:20;2.70;99.90
33645;DHT22;19986;48.190;16.366;2022-12-18T19:08:48;2.70;99.90
33645;DHT22;19986;48.190;16.366;2022-12-18T19:11:15;2.80;99.90
33645;DHT22;19986;48.190;16.366;2022-12-18T19:14:03;2.80;99.90
33645;DHT22;19986;48.190;16.366;2022-12-18T19:16:31;2.80;99.90
33645;DHT22;19986;48.190;16.366;2022-12-18T19:18:58;2.90;99.90
33645;DHT22;19986;48.190;16.366;2022-12-18T19:21:26;2.90;99.90
33645;DHT22;19986;48.190;16.366;2022-12-18T19:23:53;2.80;99.90
33645;DHT22;19986;48.190;16.366;2022-12-18T19:26:20;2.80;99.90
33645;DHT22;19986;48.190;16.366;2022-12-18T19:28:48;2.90;99.90
33645;DHT22;19986;48.190;16.366;2022-12-18T19:31:15;2.90;99.90
33645;DHT22;19986;48.190;16.366;2022-12-18T19:33:45;2.80;99.90
33645;DHT22;19986;48.190;16.366;2022-12-18T19:36:20;2.80;99.90
33645;DHT22;19986;48.190;16.366;2022-12-18T19:38:48;2.80;99.90
33645;DHT22;19986;48.190;16.366;2022-12-18T19:41:17;2.80;99.90
33645;DHT22;19986;48.190;16.366;2022-12-18T19:43:46;2.90;99.90
33645;DHT22;19986;48.190;16.366;2022-12-18T19:46:14;3.00;99.90
33645;DHT22;19986;48.190;16.366;2022-12-18T19:48:42;3.00;99.90
33645;DHT22;19986;48.190;16.366;2022-12-18T19:53:42;2.90;99.90
33645;DHT22;19986;48.190;16.366;2022-12-18T19:56:15;2.90;99.90
33645;DHT22;19986;48.190;16.366;2022-12-18T19:58:44;2.80;99.90
33645;DHT22;19986;48.190;16.366;2022-12-18T20:01:16;2.90;99.90
33645;DHT22;19986;48.190;16.366;2022-12-18T20:03:59;2.90;99.90
33645;DHT22;19986;48.190;16.366;2022-12-18T20:06:31;3.00;99.90
33645;DHT22;19986;48.190;16.366;2022-12-18T20:09:00;3.00;99.90
33645;DHT22;19986;48.190;16.366;2022-12-18T20:11:31;3.00;99.90
33645;DHT22;19986;48.190;16.366;2022-12-18T20:14:01;3.10;99.90
33645;DHT22;19986;48.190;16.366;2022-12-18T20:16:29;3.00;99.90
33645;DHT22;19986;48.190;16.366;2022-12-18T20:18:56;3.10;99.90
33645;DHT22;19986;48.190;16.366;2022-12-18T20:21:23;3.10;99.90
33645;DHT22;19986;48.190;16.366;2022-12-18T20:23:52;3.10;99.90
33645;DHT22;19986;48.190;16.366;2022-12-18T20:26:22;3.10;99.90
33645;DHT22;19986;48.190;16.366;2022-12-18T20:28:52;3.00;99.90
33645;DHT22;19986;48.190;16.366;2022-12-18T20:31:19;3.00;99.90
33645;DHT22;19986;48.190;16.366;2022-12-18T20:33:45;3.20;99.90
33645;DHT22;19986;48.190;16.366;2022-12-18T20:36:14;3.30;99.90
33645;DHT22;19986;48.190;16.366;2022-12-18T20:38:42;3.30;99.90
33645;DHT22;19986;48.190;16.366;2022-12-18T20:41:10;3.30;99.90
33645;DHT22;19986;48.190;16.366;2022-12-18T20:43:41;3.20;99.90
33645;DHT22;19986;48.190;16.366;2022-12-18T20:46:09;3.20;99.90
33645;DHT22;19986;48.190;16.366;2022-12-18T20:48:39;3.20;99.90
33645;DHT22;19986;48.190;16.366;2022-12-18T20:51:09;3.20;99.90
33645;DHT22;19986;48.190;16.366;2022-12-18T20:53:36;3.20;99.90
33645;DHT22;19986;48.190;16.366;2022-12-18T20:56:11;3.20;99.90
33645;DHT22;19986;48.190;16.366;2022-12-18T20:58:38;3.10;99.90
